Time;durP1;ratioP1;P1;durP2;ratioP2;P2;SDS_P1;SDS_P2;PMS_P1;PMS_P2;Temp;Humidity;BMP_temperature;BMP_pressure;BME280_temperature;BME280_humidity;BME280_pressure;Samples;Min_cycle;Max_cycle;Signal;HPM_P1;HPM_P2
2023/06/08 00:00:10;;;;;;;8.80;5.37;;;;;;;-141.97;66.42;47424.91;5047812;28;20190;-83
2023/06/08 00:02:36;;;;;;;6.97;5.33;;;;;;;-141.97;66.77;47759.34;5032493;28;20157;-83
2023/06/08 00:05:02;;;;;;;8.00;5.50;;;;;;;-141.97;67.07;47505.63;5033121;28;20211;-83
2023/06/08 00:07:28;;;;;;;8.80;5.60;;;;;;;-141.97;67.48;47576.75;5031119;28;20213;-82
2023/06/08 00:09:54;;;;;;;9.23;5.70;;;;;;;-141.97;67.75;47642.09;5033722;28;20697;-83
2023/06/08 00:12:20;;;;;;;7.17;5.20;;;;;;;-141.97;67.92;47584.44;5033057;28;20245;-84
2023/06/08 00:14:46;;;;;;;8.87;5.80;;;;;;;-141.97;67.84;47549.84;5033174;28;20343;-84
2023/06/08 00:17:13;;;;;;;8.00;5.37;;;;;;;-141.97;67.91;47707.44;5036305;28;20198;-84
2023/06/08 00:19:38;;;;;;;7.77;5.67;;;;;;;-141.97;68.14;47547.91;5040690;28;20309;-83
2023/06/08 00:22:07;;;;;;;7.93;5.47;;;;;;;-141.97;68.37;47582.50;5032958;28;20585;-83
2023/06/08 00:24:33;;;;;;;7.00;5.40;;;;;;;-141.97;68.87;47419.13;5034809;28;20165;-83
2023/06/08 00:26:59;;;;;;;10.53;5.63;;;;;;;-141.97;69.12;47572.91;5036978;28;20172;-84
2023/06/08 00:29:25;;;;;;;9.57;5.50;;;;;;;-141.97;69.05;47421.06;5037230;28;20241;-83
2023/06/08 00:31:51;;;;;;;7.40;5.53;;;;;;;-141.97;69.17;47555.59;5040106;28;20249;-85
2023/06/08 00:34:18;;;;;;;8.70;5.93;;;;;;;-141.97;69.34;47584.44;5051987;28;20198;-85
2023/06/08 00:36:43;;;;;;;9.33;5.77;;;;;;;-141.97;69.71;47742.03;5054254;28;20177;-82
2023/06/08 00:39:09;;;;;;;9.50;6.10;;;;;;;-141.97;70.04;47511.38;5038184;28;20166;-83
2023/06/08 00:41:34;;;;;;;10.53;6.53;;;;;;;-141.97;69.92;47688.22;5035487;28;20229;-82
2023/06/08 00:43:59;;;;;;;11.50;6.33;;;;;;;-141.97;69.66;47699.75;5036723;28;20185;-82
2023/06/08 00:46:30;;;;;;;8.60;6.37;;;;;;;-141.97;70.01;47546.00;5036402;28;20201;-83
2023/06/08 00:48:57;;;;;;;9.73;6.30;;;;;;;-141.97;70.11;47690.16;5035027;28;20642;-83
2023/06/08 00:51:24;;;;;;;8.63;6.37;;;;;;;-141.97;69.80;47586.34;5036214;28;20185;-83
2023/06/08 00:53:51;;;;;;;7.33;5.93;;;;;;;-141.97;69.51;47576.75;5019859;28;20297;-83
2023/06/08 00:56:18;;;;;;;8.80;6.37;;;;;;;-141.97;69.87;47530.59;5017046;28;20156;-85
2023/06/08 00:58:47;;;;;;;7.33;5.67;;;;;;;-141.97;69.82;47578.66;5016986;28;20162;-83
2023/06/08 01:01:18;;;;;;;11.13;6.80;;;;;;;-141.97;70.09;47570.97;5015547;28;20174;-83
2023/06/08 01:03:45;;;;;;;11.73;5.93;;;;;;;-141.97;70.31;47542.16;5016825;28;20167;-82
2023/06/08 01:06:12;;;;;;;9.87;6.20;;;;;;;-141.97;70.24;47570.97;5017007;28;20163;-81
2023/06/08 01:09:02;;;;;;;8.93;6.40;;;;;;;-141.97;70.99;47726.66;5016690;28;20278;-82
2023/06/08 01:11:36;;;;;;;9.30;6.57;;;;;;;-141.97;70.56;47603.66;5015415;28;20619;-84
2023/06/08 01:14:29;;;;;;;11.50;6.83;;;;;;;-141.97;70.60;47588.28;5015052;28;20265;-84
2023/06/08 01:17:00;;;;;;;8.43;6.13;;;;;;;-141.97;70.44;47597.88;5016518;28;20250;-83
2023/06/08 01:19:39;;;;;;;8.67;6.43;;;;;;;-141.97;70.22;47426.81;5016159;28;20556;-83
2023/06/08 01:22:22;;;;;;;8.00;6.20;;;;;;;-141.97;69.87;47611.34;5016804;28;20170;-84
2023/06/08 01:24:50;;;;;;;9.80;6.80;;;;;;;-141.97;70.08;47553.69;5016258;28;20162;-84
2023/06/08 01:27:19;;;;;;;9.10;6.80;;;;;;;-141.97;70.75;47553.69;5016223;28;20163;-84
2023/06/08 01:29:45;;;;;;;8.67;6.87;;;;;;;-141.97;70.48;47663.22;5016146;28;20619;-84
2023/06/08 01:32:11;;;;;;;9.83;6.70;;;;;;;-141.97;71.25;47572.91;5016209;28;20169;-83
2023/06/08 01:34:39;;;;;;;9.87;6.60;;;;;;;-141.97;71.18;47615.19;5014641;28;20194;-83
2023/06/08 01:37:17;;;;;;;11.60;6.53;;;;;;;-141.97;71.07;47580.59;5015796;28;20159;-83
2023/06/08 01:39:58;;;;;;;11.67;6.60;;;;;;;-141.97;71.17;47676.69;5015124;28;20170;-83
2023/06/08 01:42:25;;;;;;;11.67;6.63;;;;;;;-141.97;71.37;47570.97;5015454;28;20236;-84
2023/06/08 01:45:03;;;;;;;9.57;6.87;;;;;;;-141.97;71.43;47605.56;5015000;28;20537;-83
2023/06/08 01:47:41;;;;;;;9.87;6.63;;;;;;;-141.97;71.60;47590.19;5015130;28;20229;-84
2023/06/08 01:50:08;;;;;;;10.37;6.60;;;;;;;-141.97;72.16;47584.44;5015338;28;20162;-83
2023/06/08 01:52:33;;;;;;;12.80;6.60;;;;;;;-141.97;71.77;47570.97;5015444;28;20167;-84
2023/06/08 01:54:59;;;;;;;9.90;6.77;;;;;;;-141.97;71.83;47563.28;5013764;28;20205;-83
2023/06/08 01:57:24;;;;;;;10.30;6.60;;;;;;;-141.97;72.12;47438.34;5015181;28;20873;-83
2023/06/08 01:59:50;;;;;;;13.80;7.37;;;;;;;-141.97;72.50;47599.81;5015057;28;20627;-83
2023/06/08 02:02:15;;;;;;;11.67;7.23;;;;;;;-141.97;72.63;47570.97;5030294;28;20254;-84
2023/06/08 02:04:41;;;;;;;10.63;7.20;;;;;;;-141.97;72.49;47611.34;5034987;28;20170;-84
2023/06/08 02:07:07;;;;;;;12.87;7.83;;;;;;;-141.97;72.22;47563.28;5034999;28;20178;-83
2023/06/08 02:09:32;;;;;;;11.20;7.53;;;;;;;-141.97;71.91;47534.44;5034735;28;20162;-83
2023/06/08 02:12:06;;;;;;;12.53;7.67;;;;;;;-141.97;72.04;47580.59;5033588;28;20173;-83
2023/06/08 02:14:31;;;;;;;10.50;7.73;;;;;;;-141.97;72.00;47574.81;5034321;28;20185;-83
2023/06/08 02:17:00;;;;;;;10.97;7.87;;;;;;;-141.97;72.28;47594.03;5034199;28;20162;-83
2023/06/08 02:19:26;;;;;;;13.07;9.37;;;;;;;-141.97;72.03;47526.75;5032947;28;20170;-84
2023/06/08 02:21:52;;;;;;;12.67;9.73;;;;;;;-141.97;71.90;47453.72;5034609;28;20184;-83
2023/06/08 02:24:18;;;;;;;15.37;10.63;;;;;;;-141.97;72.21;47538.28;5048768;28;20186;-84
2023/06/08 02:26:44;;;;;;;17.20;11.67;;;;;;;-141.97;72.32;47544.06;5040033;28;20164;-84
2023/06/08 02:29:09;;;;;;;16.67;11.80;;;;;;;-141.97;72.55;47572.91;5040238;28;20170;-82
2023/06/08 02:31:35;;;;;;;20.33;11.20;;;;;;;-141.97;72.75;47576.75;5034366;28;20712;-83
2023/06/08 02:34:00;;;;;;;19.57;11.37;;;;;;;-141.97;73.31;47390.31;5034663;28;20164;-82
2023/06/08 02:36:31;;;;;;;24.33;12.97;;;;;;;-141.97;73.03;47563.28;5033474;28;20602;-84
2023/06/08 02:38:57;;;;;;;29.80;13.20;;;;;;;-141.97;72.84;47697.84;5034229;28;20232;-84
2023/06/08 02:41:23;;;;;;;20.97;11.90;;;;;;;-141.97;72.61;47524.84;5033820;28;20222;-82
2023/06/08 02:43:48;;;;;;;28.97;12.33;;;;;;;-141.97;72.44;47580.59;5033920;28;20158;-84
2023/06/08 02:46:13;;;;;;;35.93;15.07;;;;;;;-141.97;72.41;47422.97;5034225;28;20158;-84
2023/06/08 02:48:39;;;;;;;41.63;12.40;;;;;;;-141.97;72.81;47434.50;5034537;28;20170;-83
2023/06/08 02:51:05;;;;;;;31.70;11.87;;;;;;;-141.97;72.80;47453.72;5033050;28;20177;-84
2023/06/08 02:53:30;;;;;;;22.77;11.43;;;;;;;-141.97;73.19;47565.22;5033816;28;20159;-83
2023/06/08 02:55:56;;;;;;;21.97;11.57;;;;;;;-141.97;75.27;47613.25;5033712;28;20189;-84
2023/06/08 02:58:23;;;;;;;20.33;12.27;;;;;;;-141.97;76.93;47592.13;5034124;28;20638;-84
2023/06/08 03:00:53;;;;;;;17.63;11.47;;;;;;;-141.97;76.69;47540.22;5033950;28;20188;-84
2023/06/08 03:03:23;;;;;;;17.93;11.37;;;;;;;-141.97;76.72;47580.59;5033459;28;20154;-84
2023/06/08 03:05:50;;;;;;;18.00;11.27;;;;;;;-141.97;78.30;47576.75;5033536;28;20632;-83
2023/06/08 03:08:16;;;;;;;16.63;10.80;;;;;;;-141.97;78.78;47469.09;5033469;28;20162;-83
2023/06/08 03:10:42;;;;;;;18.43;10.87;;;;;;;-141.97;78.03;47492.16;5033452;28;20166;-83
2023/06/08 03:13:07;;;;;;;18.80;10.87;;;;;;;-141.97;77.56;47684.38;5033493;28;20176;-83
2023/06/08 03:15:32;;;;;;;18.87;10.97;;;;;;;-141.97;77.41;47592.13;5033946;28;20197;-84
2023/06/08 03:17:58;;;;;;;18.10;11.03;;;;;;;-141.97;76.97;47392.22;5032699;28;20181;-82
2023/06/08 03:20:23;;;;;;;15.93;10.33;;;;;;;-141.97;76.87;47722.81;5032601;28;20208;-84
2023/06/08 03:22:48;;;;;;;15.63;10.03;;;;;;;-141.97;76.34;47501.78;5033341;28;20193;-83
2023/06/08 03:25:17;;;;;;;16.83;10.20;;;;;;;-141.97;76.16;47424.91;5032381;28;20548;-83
2023/06/08 03:27:43;;;;;;;20.43;10.53;;;;;;;-141.97;76.14;47576.75;5033672;28;20468;-83
2023/06/08 03:30:09;;;;;;;20.63;10.13;;;;;;;-141.97;76.29;47611.34;5033112;28;20201;-83
2023/06/08 03:32:35;;;;;;;14.70;9.93;;;;;;;-141.97;76.62;47415.28;5031777;28;20166;-83
2023/06/08 03:35:00;;;;;;;15.00;9.67;;;;;;;-141.97;77.62;47540.22;5031848;28;20551;-84
2023/06/08 03:37:25;;;;;;;12.97;9.70;;;;;;;-141.97;76.76;47611.34;5033213;28;20661;-84
2023/06/08 03:39:51;;;;;;;14.93;9.33;;;;;;;-141.97;75.96;47603.66;5033433;28;20171;-83
2023/06/08 03:42:16;;;;;;;16.10;9.27;;;;;;;-141.97;75.00;47619.03;5033204;28;20218;-82
2023/06/08 03:44:41;;;;;;;15.07;9.33;;;;;;;-141.97;73.88;47588.28;5032887;28;20275;-83
2023/06/08 03:47:12;;;;;;;15.87;9.63;;;;;;;-141.97;73.10;47592.13;5030999;28;20177;-82
2023/06/08 03:49:37;;;;;;;14.63;9.47;;;;;;;-141.97;72.60;47546.00;5032878;28;20154;-83
2023/06/08 03:52:04;;;;;;;17.30;9.57;;;;;;;-141.97;72.85;47538.28;5032800;28;20166;-81
2023/06/08 03:54:29;;;;;;;27.47;11.53;;;;;;;-141.97;72.51;47609.41;5032729;28;20188;-82
2023/06/08 03:56:55;;;;;;;21.73;10.73;;;;;;;-141.97;72.67;47607.50;5032489;28;20551;-82
2023/06/08 03:59:21;;;;;;;38.17;18.40;;;;;;;-141.97;71.74;47584.44;5032237;28;20158;-83
2023/06/08 04:01:46;;;;;;;25.70;12.50;;;;;;;-141.97;70.96;47676.69;5032903;28;20166;-82
2023/06/08 04:04:11;;;;;;;25.70;12.33;;;;;;;-141.97;70.39;47578.66;5032415;28;20194;-82
2023/06/08 04:06:38;;;;;;;20.33;11.37;;;;;;;-141.97;69.71;47569.06;5032317;28;20226;-82
2023/06/08 04:09:04;;;;;;;16.90;9.80;;;;;;;-141.97;69.28;47753.56;5032415;28;20220;-83
2023/06/08 04:11:30;;;;;;;23.63;9.87;;;;;;;-141.97;69.34;47565.22;5032192;28;20166;-82
2023/06/08 04:13:55;;;;;;;22.77;10.27;;;;;;;-141.97;69.00;47580.59;5032032;28;20177;-83
2023/06/08 04:16:21;;;;;;;22.17;10.73;;;;;;;-141.97;69.03;47542.16;5032591;28;20627;-85
2023/06/08 04:18:47;;;;;;;20.03;10.77;;;;;;;-141.97;69.06;47546.00;5007484;28;20650;-83
2023/06/08 04:21:25;;;;;;;23.63;11.47;;;;;;;-141.97;68.97;47743.97;5032049;28;20185;-84
2023/06/08 04:23:51;;;;;;;20.73;11.30;;;;;;;-141.97;69.04;47611.34;5031998;28;20205;-82
2023/06/08 04:26:17;;;;;;;23.33;11.37;;;;;;;-141.97;68.82;47588.28;5031954;28;20181;-82
2023/06/08 04:28:44;;;;;;;25.67;11.90;;;;;;;-141.97;68.42;47580.59;5033183;28;20212;-82
2023/06/08 04:31:09;;;;;;;24.10;12.23;;;;;;;-141.97;67.70;47576.75;5035494;28;20174;-83
2023/06/08 04:33:35;;;;;;;22.47;12.40;;;;;;;-141.97;67.07;47551.75;5033076;28;20166;-81
2023/06/08 04:36:01;;;;;;;29.13;12.93;;;;;;;-141.97;66.76;47534.44;5033872;28;20184;-82
2023/06/08 04:38:27;;;;;;;21.60;12.23;;;;;;;-141.97;66.32;47601.72;5031626;28;20166;-81
2023/06/08 04:40:53;;;;;;;19.60;12.07;;;;;;;-141.97;65.87;47592.13;5030776;28;20243;-83
2023/06/08 04:43:25;;;;;;;28.17;12.27;;;;;;;-141.97;65.46;47634.41;5032103;28;20257;-81
2023/06/08 04:45:59;;;;;;;17.23;10.03;;;;;;;-141.97;65.43;47594.03;5032124;28;20569;-81
2023/06/08 04:48:26;;;;;;;15.67;8.53;;;;;;;-141.97;65.02;47588.28;5031768;28;20249;-82
2023/06/08 04:50:52;;;;;;;13.63;8.37;;;;;;;-141.97;64.81;47738.19;5030884;28;20170;-82
2023/06/08 04:53:17;;;;;;;23.80;11.37;;;;;;;-141.97;64.71;47576.75;5031939;28;20185;-82
2023/06/08 04:55:44;;;;;;;17.60;9.33;;;;;;;-141.97;63.96;47565.22;5031880;28;20194;-82
2023/06/08 04:58:11;;;;;;;20.30;13.53;;;;;;;-141.97;64.31;47563.28;5031744;28;20301;-82
2023/06/08 05:00:36;;;;;;;22.97;12.47;;;;;;;-141.97;64.26;47626.72;5031623;28;20178;-82
2023/06/08 05:03:02;;;;;;;20.83;11.27;;;;;;;-141.97;63.42;47549.84;5047116;28;20265;-83
2023/06/08 05:05:27;;;;;;;19.47;10.97;;;;;;;-141.97;63.25;47546.00;5031976;28;20237;-83
2023/06/08 05:07:53;;;;;;;15.43;9.70;;;;;;;-141.97;63.17;47569.06;5031862;28;20224;-82
2023/06/08 05:10:20;;;;;;;13.63;8.70;;;;;;;-141.97;62.69;47497.94;5034865;28;20209;-82
2023/06/08 05:12:45;;;;;;;11.53;8.10;;;;;;;-141.97;62.41;47563.28;5037628;28;20236;-82
2023/06/08 05:15:11;;;;;;;13.53;7.93;;;;;;;-141.97;62.10;47565.22;5035363;28;20710;-83
2023/06/08 05:17:36;;;;;;;13.10;7.77;;;;;;;-141.97;61.50;47699.75;5034256;28;20174;-83
2023/06/08 05:20:02;;;;;;;14.07;8.23;;;;;;;-141.97;61.14;47555.59;5034936;28;20249;-82
2023/06/08 05:22:28;;;;;;;19.80;10.33;;;;;;;-141.97;60.99;47595.97;5035472;28;20167;-83
2023/06/08 05:24:54;;;;;;;14.37;8.43;;;;;;;-141.97;60.72;47561.38;5034519;28;20589;-83
2023/06/08 05:27:19;;;;;;;11.10;7.57;;;;;;;-141.97;60.50;47569.06;5016193;28;20269;-82
2023/06/08 05:29:45;;;;;;;14.47;7.90;;;;;;;-141.97;61.00;47578.66;5021811;28;20344;-82
2023/06/08 05:32:10;;;;;;;14.70;8.20;;;;;;;-141.97;60.31;47507.53;5033810;28;20174;-82
2023/06/08 05:34:36;;;;;;;16.20;8.23;;;;;;;-141.97;60.19;47569.06;5035722;28;20186;-83
2023/06/08 05:37:01;;;;;;;11.37;7.97;;;;;;;-141.97;60.38;47542.16;5036808;28;20174;-82
2023/06/08 05:39:26;;;;;;;11.77;7.97;;;;;;;-141.97;62.48;47492.16;5034947;28;20204;-82
2023/06/08 05:41:52;;;;;;;16.80;9.57;;;;;;;-141.97;61.31;47588.28;5034911;28;20221;-81
2023/06/08 05:44:17;;;;;;;12.50;8.23;;;;;;;-141.97;61.98;47609.41;5034949;28;20634;-81
2023/06/08 05:46:43;;;;;;;17.50;8.67;;;;;;;-141.97;62.02;47557.53;5035084;28;20169;-83
2023/06/08 05:49:08;;;;;;;13.97;8.63;;;;;;;-141.97;61.25;47792.03;5034884;28;20177;-85
2023/06/08 05:51:33;;;;;;;15.70;9.27;;;;;;;-141.97;61.50;47574.81;5030785;28;20681;-83
2023/06/08 05:53:59;;;;;;;14.20;8.67;;;;;;;-141.97;61.19;47569.06;5034445;28;20635;-82
2023/06/08 05:56:26;;;;;;;11.93;8.53;;;;;;;-141.97;60.43;47349.94;5035710;28;20190;-83
2023/06/08 05:58:52;;;;;;;14.17;8.57;;;;;;;-141.97;60.38;47407.59;5034815;28;20586;-82
2023/06/08 06:01:19;;;;;;;13.20;7.53;;;;;;;-141.97;59.30;47567.13;5034993;28;20158;-82
2023/06/08 06:03:45;;;;;;;15.37;8.70;;;;;;;-141.97;58.45;47757.41;5032910;28;20196;-82
2023/06/08 06:06:11;;;;;;;13.90;8.20;;;;;;;-141.97;58.14;47720.91;5034880;28;20512;-81
2023/06/08 06:08:36;;;;;;;12.13;8.63;;;;;;;-141.97;58.96;47417.22;5034756;28;20177;-82
2023/06/08 06:11:02;;;;;;;15.57;8.63;;;;;;;-141.97;58.84;47553.69;5034772;28;20169;-83
2023/06/08 06:13:27;;;;;;;15.43;8.60;;;;;;;-141.97;59.07;47588.28;5033946;28;20174;-82
2023/06/08 06:15:53;;;;;;;11.17;8.30;;;;;;;-141.97;59.40;47572.91;5034002;28;20239;-81
2023/06/08 06:18:18;;;;;;;11.03;8.63;;;;;;;-141.97;58.49;47595.97;5034199;28;20637;-81
2023/06/08 06:20:43;;;;;;;11.90;8.30;;;;;;;-141.97;57.96;47594.03;5034837;28;20171;-81
2023/06/08 06:23:09;;;;;;;11.60;8.20;;;;;;;-141.97;56.80;47546.00;5032845;28;20236;-81
2023/06/08 06:25:35;;;;;;;11.30;7.97;;;;;;;-141.97;55.55;47540.22;5035161;28;20158;-82
2023/06/08 06:28:02;;;;;;;16.83;8.07;;;;;;;-141.97;54.45;47478.72;5033823;28;20176;-80
2023/06/08 06:30:27;;;;;;;10.57;7.33;;;;;;;-141.97;53.38;47507.53;5032779;28;20170;-82
2023/06/08 06:32:52;;;;;;;12.60;7.37;;;;;;;-141.97;53.58;47544.06;5033472;28;20247;-81
2023/06/08 06:35:18;;;;;;;12.77;7.57;;;;;;;-141.97;53.09;47396.06;5032871;28;20201;-85
2023/06/08 06:41:05;;;;;;;10.40;7.37;;;;;;;-141.97;52.00;47536.38;5017142;28;20324;-81
2023/06/08 06:43:30;;;;;;;14.37;7.63;;;;;;;-141.97;52.09;47534.44;5031195;28;20670;-80
2023/06/08 06:45:56;;;;;;;10.90;7.23;;;;;;;-141.97;51.37;47538.28;5033001;28;20173;-80
2023/06/08 06:48:22;;;;;;;10.07;6.57;;;;;;;-141.97;51.89;47551.75;5032691;28;20165;-79
2023/06/08 06:50:48;;;;;;;11.80;7.27;;;;;;;-141.97;52.01;47553.69;5030763;28;20209;-80
2023/06/08 06:53:14;;;;;;;10.90;7.40;;;;;;;-141.97;51.68;47461.41;5032294;28;20180;-78
2023/06/08 06:55:40;;;;;;;11.13;7.47;;;;;;;-141.97;51.06;47551.75;5022808;28;20589;-81
2023/06/08 06:58:06;;;;;;;9.47;6.90;;;;;;;-141.97;50.49;47488.31;5016425;28;20193;-78
2023/06/08 07:00:37;;;;;;;10.57;7.13;;;;;;;-141.97;51.37;47526.75;5032959;28;20198;-78
2023/06/08 07:03:07;;;;;;;10.83;7.70;;;;;;;-141.97;51.74;47522.91;5031842;28;20174;-80
2023/06/08 07:05:33;;;;;;;10.40;7.30;;;;;;;-141.97;52.86;47551.75;5032102;28;20162;-80
2023/06/08 07:07:58;;;;;;;9.10;7.17;;;;;;;-141.97;51.66;47440.28;5031319;28;20174;-80
2023/06/08 07:10:24;;;;;;;13.43;7.17;;;;;;;-141.97;50.44;47553.69;5031894;28;20173;-80
2023/06/08 07:12:49;;;;;;;11.17;7.37;;;;;;;-141.97;50.75;47522.91;5031936;28;20190;-79
2023/06/08 07:15:16;;;;;;;10.53;7.50;;;;;;;-141.97;52.03;47521.00;5032291;28;20557;-79
2023/06/08 07:17:44;;;;;;;9.53;7.60;;;;;;;-141.97;50.88;47515.22;5031834;28;20268;-79
2023/06/08 07:20:09;;;;;;;12.23;7.33;;;;;;;-141.97;50.63;47559.44;5032473;28;20165;-81
2023/06/08 07:22:35;;;;;;;11.93;7.13;;;;;;;-141.97;50.19;47592.13;5032720;28;20162;-80
2023/06/08 07:25:01;;;;;;;9.03;6.97;;;;;;;-141.97;49.35;47546.00;5031369;28;20619;-80
2023/06/08 07:27:27;;;;;;;10.03;7.50;;;;;;;-141.97;48.99;47513.31;5032249;28;20169;-79
2023/06/08 07:29:52;;;;;;;13.43;7.77;;;;;;;-141.97;47.72;47532.53;5030330;28;20645;-79
2023/06/08 07:32:18;;;;;;;10.20;7.67;;;;;;;-141.97;47.98;47542.16;5032345;28;20241;-80
2023/06/08 07:34:43;;;;;;;11.30;7.47;;;;;;;-141.97;47.69;47538.28;5031941;28;20194;-79
2023/06/08 07:37:08;;;;;;;10.10;7.67;;;;;;;-141.97;47.57;47517.16;5031783;28;20566;-79
2023/06/08 07:39:37;;;;;;;9.40;7.73;;;;;;;-141.97;47.33;47446.03;5012846;28;20189;-80
2023/06/08 07:42:03;;;;;;;10.60;7.87;;;;;;;-141.97;47.07;47765.09;5030423;28;20702;-80
2023/06/08 07:44:29;;;;;;;10.57;7.77;;;;;;;-141.97;47.11;47503.69;5032901;28;20197;-80
2023/06/08 07:46:54;;;;;;;13.03;7.60;;;;;;;-141.97;46.40;47582.50;5029812;28;20213;-79
2023/06/08 07:49:20;;;;;;;11.27;7.20;;;;;;;-141.97;45.37;47424.91;5031756;28;20539;-81
2023/06/08 07:51:45;;;;;;;10.10;7.37;;;;;;;-141.97;44.58;47275.00;5030855;28;20232;-80
2023/06/08 07:54:11;;;;;;;11.73;7.70;;;;;;;-141.97;44.04;47430.66;5030665;28;20616;-80
2023/06/08 07:56:36;;;;;;;11.57;7.63;;;;;;;-141.97;44.50;47480.63;5031042;28;20212;-80
2023/06/08 07:59:02;;;;;;;13.00;7.53;;;;;;;-141.97;44.86;47497.94;5031015;28;20186;-80
2023/06/08 08:01:27;;;;;;;10.00;8.50;;;;;;;-141.97;44.17;47478.72;5031675;28;20209;-81
2023/06/08 08:03:53;;;;;;;13.57;8.30;;;;;;;-141.97;44.77;47447.97;5030540;28;20169;-79
2023/06/08 08:06:18;;;;;;;11.03;7.90;;;;;;;-141.97;43.62;47449.88;5030510;28;20193;-79
2023/06/08 08:08:44;;;;;;;14.87;8.73;;;;;;;-141.97;44.57;47734.34;5030115;28;20177;-79
2023/06/08 08:11:09;;;;;;;12.00;8.23;;;;;;;-141.97;44.74;47521.00;5031257;28;20585;-79
2023/06/08 08:13:34;;;;;;;11.27;7.87;;;;;;;-141.97;43.61;47496.00;5031326;28;20496;-80
2023/06/08 08:16:00;;;;;;;12.77;8.30;;;;;;;-141.97;42.91;47642.09;5030516;28;20190;-79
2023/06/08 08:18:25;;;;;;;13.53;8.70;;;;;;;-141.97;43.70;47476.78;5029348;28;20629;-81
2023/06/08 08:20:51;;;;;;;11.67;8.07;;;;;;;-141.97;43.59;47490.25;5020845;28;20259;-79
2023/06/08 08:23:16;;;;;;;14.87;7.87;;;;;;;-141.97;43.27;47695.91;5030549;28;20158;-79
2023/06/08 08:25:42;;;;;;;11.80;7.10;;;;;;;-141.97;43.34;47553.69;5032920;28;20292;-80
2023/06/08 08:28:07;;;;;;;8.33;6.93;;;;;;;-141.97;43.60;47511.38;5030079;28;20208;-80
2023/06/08 08:30:32;;;;;;;10.23;7.60;;;;;;;-141.97;43.45;47490.25;4986449;28;20323;-82
2023/06/08 08:32:58;;;;;;;10.10;7.10;;;;;;;-141.97;43.05;47428.75;5028588;28;20178;-78
2023/06/08 08:35:28;;;;;;;13.33;7.40;;;;;;;-141.97;42.34;47607.50;5029946;28;20235;-79
2023/06/08 08:37:55;;;;;;;11.00;7.77;;;;;;;-141.97;42.71;47480.63;5029766;28;20185;-81
2023/06/08 08:40:21;;;;;;;12.00;6.60;;;;;;;-141.97;42.97;47426.81;5030556;28;20669;-79
2023/06/08 08:42:53;;;;;;;8.23;6.53;;;;;;;-141.97;41.76;47511.38;5030950;28;20304;-79
2023/06/08 08:45:22;;;;;;;9.40;6.50;;;;;;;-141.97;41.73;47511.38;5032120;28;20560;-80
2023/06/08 08:47:53;;;;;;;9.73;6.70;;;;;;;-141.97;40.87;47384.53;5033375;28;20197;-80
2023/06/08 08:50:19;;;;;;;9.90;6.53;;;;;;;-141.97;41.41;47519.06;5034383;28;20288;-79
2023/06/08 08:52:45;;;;;;;10.30;6.83;;;;;;;-141.97;41.16;47465.25;5034587;28;20220;-82
2023/06/08 08:55:11;;;;;;;10.63;6.60;;;;;;;-141.97;40.87;47438.34;5034671;28;20221;-79
2023/06/08 08:57:37;;;;;;;10.43;6.90;;;;;;;-141.97;40.82;47465.25;5034776;28;20174;-80
2023/06/08 09:00:06;;;;;;;10.90;7.10;;;;;;;-141.97;40.83;47599.81;5033126;28;20211;-79
2023/06/08 09:02:35;;;;;;;8.67;6.53;;;;;;;-141.97;40.55;47442.19;5034891;28;20171;-79
2023/06/08 09:05:03;;;;;;;9.18;7.15;;;;;;;-141.97;40.91;47451.81;5034942;28;20242;-79
2023/06/08 09:07:29;;;;;;;10.30;6.63;;;;;;;-141.97;41.01;47488.31;5033734;28;20276;-80
2023/06/08 09:10:18;;;;;;;11.57;7.00;;;;;;;-141.97;40.81;47434.50;5030742;28;20187;-80
2023/06/08 09:12:48;;;;;;;10.00;6.45;;;;;;;-141.97;41.43;47415.28;5034354;28;20160;-79
2023/06/08 09:15:23;;;;;;;9.85;6.78;;;;;;;-141.97;40.85;47522.91;5034641;28;20573;-82
2023/06/08 09:17:48;;;;;;;8.10;6.00;;;;;;;-141.97;40.77;47472.94;5034370;28;20175;-81
2023/06/08 09:20:14;;;;;;;8.80;6.35;;;;;;;-141.97;41.40;47476.78;5033315;28;20172;-81
2023/06/08 09:22:39;;;;;;;10.17;6.50;;;;;;;-141.97;41.88;47692.06;5034381;28;20166;-80
2023/06/08 09:25:09;;;;;;;9.70;6.33;;;;;;;-141.97;42.10;47499.84;5034519;28;20167;-81
2023/06/08 09:27:35;;;;;;;10.20;6.10;;;;;;;-141.97;41.96;47373.00;5014304;28;20163;-81
2023/06/08 09:30:01;;;;;;;8.67;5.70;;;;;;;-141.97;42.56;47378.78;5016129;28;20604;-80
2023/06/08 09:32:31;;;;;;;7.93;5.90;;;;;;;-141.97;41.45;47492.16;5033739;28;20253;-78
2023/06/08 09:35:01;;;;;;;14.48;9.43;;;;;;;-141.97;40.60;47478.72;5033173;28;20285;-80
2023/06/08 09:37:36;;;;;;;11.45;5.78;;;;;;;-141.97;41.22;47496.00;5033516;28;20174;-80
2023/06/08 09:40:08;;;;;;;8.55;5.68;;;;;;;-141.97;41.28;47482.56;5034144;28;20154;-80
2023/06/08 09:42:50;;;;;;;8.77;5.57;;;;;;;-141.97;40.89;47461.41;5033498;28;20234;-80
2023/06/08 09:45:16;;;;;;;7.82;5.13;;;;;;;-141.97;40.46;47480.63;5033640;28;20162;-80
2023/06/08 09:47:42;;;;;;;5.60;4.85;;;;;;;-141.97;39.58;47474.88;5033703;28;20164;-81
2023/06/08 09:50:08;;;;;;;10.68;5.03;;;;;;;-141.97;39.88;47405.69;5016686;28;20254;-80
2023/06/08 09:52:36;;;;;;;11.20;5.07;;;;;;;-141.97;40.55;47436.44;5032561;28;20175;-82
2023/06/08 09:55:03;;;;;;;8.20;4.78;;;;;;;-141.97;40.17;47488.31;5032953;28;20218;-82
2023/06/08 09:57:35;;;;;;;10.35;5.18;;;;;;;-141.97;40.33;47238.47;5033846;28;20599;-82
2023/06/08 10:00:15;;;;;;;6.55;4.30;;;;;;;-141.97;39.50;47374.94;5033793;28;20243;-82
2023/06/08 10:02:42;;;;;;;6.88;4.30;;;;;;;-141.97;39.25;47380.69;5033577;28;20672;-80
2023/06/08 10:05:10;;;;;;;6.38;4.57;;;;;;;-141.97;38.75;47461.41;5031656;28;20555;-80
2023/06/08 10:07:38;;;;;;;6.43;4.40;;;;;;;-141.97;39.86;47438.34;5033081;28;20161;-80
2023/06/08 10:10:29;;;;;;;6.55;4.85;;;;;;;-141.97;39.79;47553.69;5033139;28;20311;-79
2023/06/08 10:12:56;;;;;;;6.80;4.50;;;;;;;-141.97;40.03;47465.25;5032620;28;20261;-80
2023/06/08 10:15:23;;;;;;;6.43;4.43;;;;;;;-141.97;40.71;47440.28;5032351;28;20197;-80
2023/06/08 10:17:50;;;;;;;7.20;5.20;;;;;;;-141.97;40.96;47488.31;5033268;28;20168;-80
2023/06/08 10:20:16;;;;;;;6.32;4.80;;;;;;;-141.97;39.85;47492.16;5032314;28;20186;-81
2023/06/08 10:22:43;;;;;;;7.47;4.43;;;;;;;-141.97;39.48;47682.47;5032986;28;20169;-82
2023/06/08 10:25:11;;;;;;;6.20;4.32;;;;;;;-141.97;39.79;47467.19;5031950;28;20162;-79
2023/06/08 10:27:36;;;;;;;5.80;4.10;;;;;;;-141.97;39.25;47488.31;5033172;28;20685;-81
2023/06/08 10:30:05;;;;;;;8.10;4.22;;;;;;;-141.97;39.21;47499.84;5032488;28;20248;-82
2023/06/08 10:32:33;;;;;;;7.22;4.60;;;;;;;-141.97;39.68;47472.94;5033608;28;20254;-83
2023/06/08 10:35:03;;;;;;;9.05;4.70;;;;;;;-141.97;39.71;47688.22;5033862;28;20222;-82
2023/06/08 10:37:31;;;;;;;6.03;4.20;;;;;;;-141.97;39.69;47444.13;5032988;28;20163;-83
2023/06/08 10:40:06;;;;;;;8.40;4.70;;;;;;;-141.97;39.74;47620.94;5032626;28;20172;-83
2023/06/08 10:42:32;;;;;;;7.85;4.53;;;;;;;-141.97;39.23;47622.88;5032933;28;20644;-82
2023/06/08 10:44:58;;;;;;;7.43;4.40;;;;;;;-141.97;39.59;47342.25;5031933;28;20172;-81
2023/06/08 10:47:24;;;;;;;8.80;4.30;;;;;;;-141.97;39.08;47465.25;5032289;28;20178;-82
2023/06/08 10:50:04;;;;;;;6.78;4.35;;;;;;;-141.97;38.78;47463.34;5031352;28;20181;-83
2023/06/08 10:52:39;;;;;;;9.13;4.40;;;;;;;-141.97;38.78;47299.97;5031566;28;20699;-82
2023/06/08 10:55:11;;;;;;;6.40;4.45;;;;;;;-141.97;39.33;47469.09;5033095;28;20707;-84
2023/06/08 10:57:49;;;;;;;6.68;4.40;;;;;;;-141.97;39.20;47472.94;5032832;28;20194;-83
2023/06/08 11:00:23;;;;;;;6.10;4.72;;;;;;;-141.97;39.22;47430.66;5031935;28;20183;-84
2023/06/08 11:02:51;;;;;;;6.25;4.45;;;;;;;-141.97;38.96;47463.34;5031924;28;20189;-84
2023/06/08 11:05:17;;;;;;;7.68;4.60;;;;;;;-141.97;39.02;47607.50;4997223;28;20268;-84
2023/06/08 11:07:43;;;;;;;7.82;5.30;;;;;;;-141.97;39.16;47626.72;5026744;28;20185;-84
2023/06/08 11:10:09;;;;;;;6.00;4.20;;;;;;;-141.97;39.35;47461.41;5032047;28;20184;-84
2023/06/08 11:12:34;;;;;;;5.60;4.68;;;;;;;-141.97;39.13;47415.28;5029962;28;20566;-84